createdAt,value
2022-08-01T00:01:28.910Z,63.70
2022-08-01T00:03:55.900Z,63.70
2022-08-01T00:06:23.016Z,63.80
2022-08-01T00:08:52.075Z,64.20
2022-08-01T00:11:18.971Z,64.30
2022-08-01T00:13:45.790Z,64.80
2022-08-01T00:16:18.142Z,65.10
2022-08-01T00:18:44.997Z,65.70
2022-08-01T00:21:12.049Z,66.40
2022-08-01T00:23:38.815Z,67.00
2022-08-01T00:26:05.606Z,68.10
2022-08-01T00:28:32.375Z,68.60
2022-08-01T00:30:59.123Z,69.70
2022-08-01T00:33:26.033Z,70.30
2022-08-01T00:35:53.113Z,71.20
2022-08-01T00:38:19.948Z,72.40
2022-08-01T00:40:49.117Z,73.00
2022-08-01T00:43:16.553Z,74.00
2022-08-01T00:45:43.428Z,75.20
2022-08-01T00:48:10.556Z,75.50
2022-08-01T00:50:37.467Z,79.00
2022-08-01T00:53:04.544Z,81.70
2022-08-01T00:55:33.314Z,83.90
2022-08-01T00:58:05.737Z,85.60
2022-08-01T01:00:53.764Z,87.10
2022-08-01T01:03:26.441Z,89.00
2022-08-01T01:06:25.276Z,90.40
2022-08-01T01:09:12.871Z,90.80
2022-08-01T01:11:58.596Z,91.00
2022-08-01T01:14:37.845Z,91.10
2022-08-01T01:17:08.841Z,91.50
2022-08-01T01:19:44.823Z,91.80
2022-08-01T01:22:36.086Z,91.90
2022-08-01T01:25:42.776Z,92.10
2022-08-01T01:28:35.140Z,92.20
2022-08-01T01:31:04.409Z,92.10
2022-08-01T01:33:37.235Z,92.00
2022-08-01T01:36:15.605Z,92.20
2022-08-01T01:38:45.259Z,92.10
2022-08-01T01:41:15.226Z,92.20
2022-08-01T01:43:43.372Z,92.10
2022-08-01T01:46:18.013Z,92.20
2022-08-01T01:48:50.690Z,92.30
2022-08-01T01:51:18.632Z,92.50
2022-08-01T01:53:49.123Z,92.70
2022-08-01T01:56:22.662Z,92.70
2022-08-01T01:58:58.793Z,92.90
2022-08-01T02:01:58.367Z,93.30
2022-08-01T02:04:23.239Z,93.80
2022-08-01T02:06:53.902Z,94.60
2022-08-01T02:09:22.593Z,95.30
2022-08-01T02:12:07.544Z,95.30
2022-08-01T02:14:45.909Z,95.30
2022-08-01T02:17:22.172Z,95.60
2022-08-01T02:19:54.936Z,96.30
2022-08-01T02:22:38.305Z,96.40
2022-08-01T02:26:09.290Z,97.10
2022-08-01T02:28:39.536Z,97.50
2022-08-01T02:31:12.928Z,98.40
2022-08-01T02:33:49.714Z,98.90
2022-08-01T02:36:29.145Z,99.60
2022-08-01T02:39:02.697Z,99.90
2022-08-01T02:41:31.309Z,99.90
2022-08-01T02:44:10.071Z,99.90
2022-08-01T02:46:46.813Z,99.90
2022-08-01T02:49:18.006Z,99.90
2022-08-01T02:51:46.822Z,99.90
2022-08-01T02:54:20.838Z,99.90
2022-08-01T02:56:49.333Z,99.90
2022-08-01T02:59:25.892Z,99.90
2022-08-01T03:01:57.322Z,99.90
2022-08-01T03:04:27.359Z,99.90
2022-08-01T03:06:59.465Z,99.90
2022-08-01T03:09:28.397Z,99.90
2022-08-01T03:12:04.405Z,99.90
2022-08-01T03:14:34.649Z,99.90
2022-08-01T03:17:03.185Z,99.90
2022-08-01T03:19:32.479Z,99.90
2022-08-01T03:22:00.640Z,99.90
2022-08-01T03:24:28.409Z,99.90
2022-08-01T03:26:59.360Z,99.90
2022-08-01T03:29:31.585Z,99.90
2022-08-01T03:31:59.444Z,99.90
2022-08-01T03:34:26.433Z,99.90
2022-08-01T03:37:12.082Z,99.90
2022-08-01T03:39:53.339Z,99.90
2022-08-01T03:42:25.849Z,99.90
2022-08-01T03:44:57.914Z,99.90
2022-08-01T03:47:30.805Z,99.90
2022-08-01T03:50:01.745Z,99.90
2022-08-01T03:52:31.494Z,99.90
2022-08-01T03:55:06.075Z,99.90
2022-08-01T03:57:36.694Z,99.90
2022-08-01T04:00:08.413Z,99.90
2022-08-01T04:02:37.312Z,99.90
2022-08-01T04:05:05.459Z,99.90
2022-08-01T04:07:37.237Z,99.90
2022-08-01T04:10:05.696Z,99.90
2022-08-01T04:12:35.826Z,99.90
2022-08-01T04:15:05.468Z,99.90
2022-08-01T04:17:34.547Z,99.90
2022-08-01T04:20:02.612Z,99.90
2022-08-01T04:22:31.490Z,99.90
2022-08-01T04:25:00.739Z,99.90
2022-08-01T04:27:49.153Z,99.90
2022-08-01T04:30:26.918Z,99.90
2022-08-01T04:32:56.226Z,99.90
2022-08-01T04:36:03.889Z,99.90
2022-08-01T04:38:18.623Z,99.90
2022-08-01T04:40:47.008Z,99.90
2022-08-01T04:43:15.065Z,99.90
2022-08-01T04:45:46.845Z,99.90
2022-08-01T04:51:00.189Z,99.90
2022-08-01T04:53:29.439Z,99.90
2022-08-01T04:55:56.634Z,99.90
2022-08-01T04:58:23.539Z,99.90
2022-08-01T05:00:50.472Z,99.90
2022-08-01T05:03:17.438Z,99.90
2022-08-01T05:05:46.449Z,99.90
2022-08-01T05:08:13.273Z,99.90
2022-08-01T05:10:42.510Z,99.90
2022-08-01T05:13:10.031Z,99.90
2022-08-01T05:15:40.111Z,99.90
2022-08-01T05:18:09.603Z,99.90
2022-08-01T05:20:39.255Z,99.90
2022-08-01T05:23:06.619Z,99.90
2022-08-01T05:25:57.796Z,99.90
2022-08-01T05:28:25.159Z,99.90
2022-08-01T05:30:55.685Z,99.90
2022-08-01T05:33:22.766Z,99.90
2022-08-01T05:35:49.551Z,99.90
2022-08-01T05:38:16.833Z,99.90
2022-08-01T05:40:46.183Z,99.90
2022-08-01T05:43:13.171Z,99.90
2022-08-01T05:45:42.707Z,99.90
2022-08-01T05:48:09.504Z,99.90
2022-08-01T05:50:36.258Z,99.90
2022-08-01T05:53:03.274Z,99.90
2022-08-01T05:55:30.121Z,99.90
2022-08-01T05:58:04.318Z,99.90
2022-08-01T06:00:31.489Z,99.90
2022-08-01T06:02:58.352Z,99.90
2022-08-01T06:05:25.135Z,99.90
2022-08-01T06:07:52.238Z,99.90
2022-08-01T06:10:19.201Z,99.90
2022-08-01T06:12:46.127Z,99.90
2022-08-01T06:15:13.177Z,99.90
2022-08-01T06:17:42.298Z,99.90
2022-08-01T06:20:09.995Z,99.90
2022-08-01T06:22:36.828Z,99.90
2022-08-01T06:25:05.904Z,99.90
2022-08-01T06:27:35.441Z,99.90
2022-08-01T06:30:02.350Z,99.90
2022-08-01T06:32:30.026Z,99.60
2022-08-01T06:34:59.043Z,99.90
2022-08-01T06:37:35.204Z,99.90
2022-08-01T06:40:16.222Z,99.90
2022-08-01T06:42:43.923Z,99.50
2022-08-01T06:45:12.448Z,99.30
2022-08-01T06:47:45.140Z,97.50
2022-08-01T06:50:17.804Z,96.40
2022-08-01T06:52:58.096Z,96.60
2022-08-01T06:55:29.193Z,96.10
2022-08-01T06:57:58.282Z,96.90
2022-08-01T07:00:26.777Z,96.10
2022-08-01T07:02:59.542Z,95.90
2022-08-01T07:05:26.412Z,94.10
2022-08-01T07:07:53.349Z,94.50
2022-08-01T07:10:22.478Z,94.60
2022-08-01T07:12:49.354Z,95.80
2022-08-01T07:15:16.695Z,96.60
2022-08-01T07:17:44.025Z,97.40
2022-08-01T07:20:13.934Z,97.60
2022-08-01T07:22:47.662Z,98.40
2022-08-01T07:25:17.745Z,98.90
2022-08-01T07:27:45.564Z,96.90
2022-08-01T07:30:12.802Z,95.60
2022-08-01T07:32:39.605Z,96.00
2022-08-01T07:35:06.963Z,95.80
2022-08-01T07:37:45.395Z,95.40
2022-08-01T07:40:18.305Z,96.00
2022-08-01T07:42:47.322Z,96.70
2022-08-01T07:45:15.277Z,98.40
2022-08-01T07:47:44.650Z,99.90
2022-08-01T07:50:11.669Z,99.90
2022-08-01T07:52:41.064Z,99.40
2022-08-01T07:55:08.595Z,97.90
2022-08-01T07:57:37.983Z,95.10
2022-08-01T08:00:07.093Z,91.80
2022-08-01T08:02:36.885Z,90.80
2022-08-01T08:05:04.959Z,90.30
2022-08-01T08:07:32.532Z,90.80
2022-08-01T08:09:59.409Z,91.60
2022-08-01T08:12:30.760Z,92.40
2022-08-01T08:14:59.824Z,93.50
2022-08-01T08:17:35.641Z,93.80
2022-08-01T08:20:09.390Z,94.80
2022-08-01T08:22:36.574Z,96.20
2022-08-01T08:25:05.838Z,97.20
2022-08-01T08:27:35.018Z,97.50
2022-08-01T08:30:08.478Z,96.10
2022-08-01T08:32:37.901Z,94.40
2022-08-01T08:35:06.212Z,93.00
2022-08-01T08:37:47.225Z,91.50
2022-08-01T08:40:16.576Z,90.20
2022-08-01T08:42:47.375Z,90.00
2022-08-01T08:45:14.323Z,90.30
2022-08-01T08:47:44.589Z,90.00
2022-08-01T08:50:13.811Z,88.00
2022-08-01T08:52:41.231Z,84.00
2022-08-01T08:55:09.675Z,82.10
2022-08-01T08:57:40.330Z,83.20
2022-08-01T09:00:17.156Z,85.60
2022-08-01T09:05:38.843Z,83.60
2022-08-01T09:08:11.682Z,84.20
2022-08-01T09:10:38.508Z,81.30
2022-08-01T09:13:06.883Z,77.40
2022-08-01T09:15:48.206Z,75.00
2022-08-01T09:18:34.769Z,72.90
2022-08-01T09:21:07.436Z,72.00
2022-08-01T09:23:53.315Z,69.90
2022-08-01T09:26:33.935Z,70.10
2022-08-01T09:29:08.130Z,73.70
2022-08-01T09:31:47.244Z,74.00
2022-08-01T09:34:16.156Z,74.60
2022-08-01T09:36:58.102Z,74.20
2022-08-01T09:39:27.920Z,72.30
2022-08-01T09:41:57.218Z,71.20
2022-08-01T09:44:54.826Z,71.50
2022-08-01T09:47:23.739Z,71.00
2022-08-01T09:49:59.366Z,72.50
2022-08-01T09:52:29.233Z,74.40
2022-08-01T09:54:59.664Z,75.90
2022-08-01T09:57:27.252Z,76.80
2022-08-01T10:00:00.536Z,76.60
2022-08-01T10:02:35.983Z,76.50
2022-08-01T10:05:09.290Z,77.40
2022-08-01T10:07:58.245Z,78.90
2022-08-01T10:10:28.958Z,78.00
2022-08-01T10:13:01.774Z,78.30
2022-08-01T10:15:37.006Z,77.60
2022-08-01T10:18:16.162Z,77.20
2022-08-01T10:20:48.902Z,77.00
2022-08-01T10:23:16.496Z,75.80
2022-08-01T10:25:46.958Z,74.60
2022-08-01T10:28:24.016Z,75.70
2022-08-01T10:30:53.095Z,76.60
2022-08-01T10:33:49.884Z,77.30
2022-08-01T10:36:11.617Z,77.20
2022-08-01T10:38:44.236Z,77.30
2022-08-01T10:41:16.414Z,77.00
2022-08-01T10:43:46.987Z,76.30
2022-08-01T10:46:14.531Z,76.40
2022-08-01T10:48:50.270Z,75.50
2022-08-01T10:51:26.957Z,76.10
2022-08-01T10:54:11.416Z,76.80
2022-08-01T10:56:50.607Z,76.80
2022-08-01T10:59:50.261Z,75.60
2022-08-01T11:02:32.229Z,74.70
2022-08-01T11:05:21.107Z,73.00
2022-08-01T11:07:59.446Z,74.20
2022-08-01T11:10:41.878Z,72.70
2022-08-01T11:13:12.303Z,74.50
2022-08-01T11:15:50.259Z,73.20
2022-08-01T11:18:33.837Z,70.70
2022-08-01T11:21:57.790Z,70.00
2022-08-01T11:23:55.053Z,70.10
2022-08-01T11:26:29.577Z,71.90
2022-08-01T11:29:21.998Z,74.20
2022-08-01T11:31:49.944Z,75.60
2022-08-01T11:34:16.759Z,82.20
2022-08-01T11:36:59.921Z,88.60
2022-08-01T11:39:29.793Z,90.90
2022-08-01T11:42:16.975Z,90.50
2022-08-01T11:44:51.786Z,91.10
2022-08-01T11:47:47.900Z,90.10
2022-08-01T11:50:39.313Z,89.40
2022-08-01T11:53:07.861Z,83.60
2022-08-01T11:55:35.909Z,81.90
2022-08-01T11:58:22.566Z,79.80
2022-08-01T12:00:59.343Z,77.90
2022-08-01T12:03:34.602Z,75.70
2022-08-01T12:06:02.247Z,74.10
2022-08-01T12:08:33.865Z,73.00
2022-08-01T12:11:02.758Z,72.20
2022-08-01T12:13:43.990Z,68.00
2022-08-01T12:16:12.291Z,65.90
2022-08-01T12:18:43.420Z,62.20
2022-08-01T12:21:15.551Z,59.70
2022-08-01T12:23:42.347Z,56.00
2022-08-01T12:26:09.186Z,57.60
2022-08-01T12:28:56.451Z,59.80
2022-08-01T12:31:32.920Z,60.90
2022-08-01T12:33:59.779Z,61.90
2022-08-01T12:36:30.878Z,64.60
2022-08-01T12:39:00.351Z,65.40
2022-08-01T12:41:33.226Z,66.20
2022-08-01T12:44:00.459Z,63.30
2022-08-01T12:46:29.583Z,61.20
2022-08-01T12:48:56.376Z,60.40
2022-08-01T12:51:26.049Z,60.60
2022-08-01T12:53:55.639Z,59.70
2022-08-01T12:56:33.699Z,58.40
2022-08-01T12:59:03.132Z,56.30
2022-08-01T13:01:32.326Z,54.60
2022-08-01T13:04:04.931Z,52.10
2022-08-01T13:06:31.823Z,48.70
2022-08-01T13:09:09.912Z,45.80
2022-08-01T13:11:39.316Z,46.50
2022-08-01T13:14:36.545Z,49.30
2022-08-01T13:17:30.203Z,55.20
2022-08-01T13:19:59.157Z,58.30
2022-08-01T13:22:41.200Z,60.50
2022-08-01T13:25:19.814Z,62.60
2022-08-01T13:27:52.288Z,62.80
2022-08-01T13:30:23.995Z,66.10
2022-08-01T13:33:11.260Z,66.70
2022-08-01T13:35:38.171Z,65.50
2022-08-01T13:38:07.379Z,64.20
2022-08-01T13:40:36.803Z,57.50
2022-08-01T13:43:05.837Z,55.60
2022-08-01T13:45:32.832Z,56.70
2022-08-01T13:48:12.361Z,57.40
2022-08-01T13:50:53.400Z,59.70
2022-08-01T13:53:29.042Z,61.70
2022-08-01T13:55:56.494Z,63.60
2022-08-01T13:58:23.775Z,65.60
2022-08-01T14:00:53.074Z,67.90
2022-08-01T14:03:22.711Z,69.30
2022-08-01T14:06:00.255Z,69.50
2022-08-01T14:08:27.443Z,69.70
2022-08-01T14:10:57.977Z,70.00
2022-08-01T14:13:32.152Z,69.10
2022-08-01T14:16:03.740Z,67.40
2022-08-01T14:18:30.653Z,64.70
2022-08-01T14:20:59.272Z,63.10
2022-08-01T14:23:32.295Z,62.90
2022-08-01T14:26:04.184Z,58.90
2022-08-01T14:28:34.399Z,56.10
2022-08-01T14:31:01.900Z,52.20
2022-08-01T14:33:31.865Z,51.10
2022-08-01T14:36:20.611Z,44.60
2022-08-01T14:38:48.809Z,37.60
2022-08-01T14:41:16.107Z,33.30
2022-08-01T14:43:43.110Z,29.90
2022-08-01T14:46:13.441Z,31.10
2022-08-01T14:48:40.705Z,29.60
2022-08-01T14:51:08.320Z,30.00
2022-08-01T14:53:37.347Z,31.20
2022-08-01T14:56:10.703Z,35.50
2022-08-01T14:58:37.695Z,40.80
2022-08-01T15:01:07.217Z,43.70
2022-08-01T15:03:34.130Z,46.20
2022-08-01T15:06:01.387Z,49.90
2022-08-01T15:08:31.054Z,55.00
2022-08-01T15:11:00.142Z,57.70
2022-08-01T15:13:27.128Z,60.00
2022-08-01T15:16:00.253Z,61.90
2022-08-01T15:18:28.888Z,63.50
2022-08-01T15:20:58.323Z,62.60
2022-08-01T15:23:29.643Z,64.10
2022-08-01T15:25:56.478Z,64.50
2022-08-01T15:28:25.736Z,63.10
2022-08-01T15:30:56.215Z,61.90
2022-08-01T15:33:23.166Z,61.90
2022-08-01T15:35:49.956Z,61.80
2022-08-01T15:38:20.331Z,61.60
2022-08-01T15:40:47.422Z,59.50
2022-08-01T15:43:15.609Z,58.90
2022-08-01T15:45:47.799Z,57.80
2022-08-01T15:48:18.711Z,56.70
2022-08-01T15:50:45.854Z,56.20
2022-08-01T15:53:15.150Z,54.90
2022-08-01T15:55:52.130Z,52.60
2022-08-01T15:58:19.981Z,51.40
2022-08-01T16:00:47.078Z,52.20
2022-08-01T16:03:13.963Z,52.30
2022-08-01T16:05:44.470Z,52.20
2022-08-01T16:08:14.231Z,52.70
2022-08-01T16:10:43.899Z,52.80
2022-08-01T16:13:10.821Z,53.50
2022-08-01T16:15:43.084Z,53.40
2022-08-01T16:18:14.524Z,53.40
2022-08-01T16:20:45.797Z,53.40
2022-08-01T16:23:14.374Z,54.20
2022-08-01T16:25:41.295Z,53.30
2022-08-01T16:28:10.987Z,51.50
2022-08-01T16:30:43.336Z,51.80
2022-08-01T16:33:45.028Z,52.70
2022-08-01T16:36:05.049Z,52.80
2022-08-01T16:38:34.157Z,53.10
2022-08-01T16:41:00.942Z,53.40
2022-08-01T16:43:30.793Z,54.20
2022-08-01T16:45:59.801Z,54.10
2022-08-01T16:48:26.995Z,54.00
2022-08-01T16:50:54.092Z,54.50
2022-08-01T16:53:24.823Z,54.50
2022-08-01T16:55:51.887Z,54.50
2022-08-01T16:58:23.536Z,54.40
2022-08-01T17:00:56.816Z,54.40
2022-08-01T17:03:51.376Z,54.60
2022-08-01T17:06:19.075Z,54.30
2022-08-01T17:08:49.932Z,54.30
2022-08-01T17:11:17.005Z,55.10
2022-08-01T17:13:44.479Z,55.70
2022-08-01T17:16:12.231Z,56.30
2022-08-01T17:18:39.245Z,56.50
2022-08-01T17:21:06.381Z,56.80
2022-08-01T17:23:35.004Z,56.80
2022-08-01T17:26:02.022Z,57.30
2022-08-01T17:28:28.947Z,57.70
2022-08-01T17:31:12.086Z,58.10
2022-08-01T17:33:56.132Z,57.70
2022-08-01T17:36:25.666Z,58.20
2022-08-01T17:38:52.649Z,58.70
2022-08-01T17:41:19.572Z,58.80
2022-08-01T17:43:46.786Z,58.60
2022-08-01T17:46:13.912Z,59.00
2022-08-01T17:48:40.776Z,59.40
2022-08-01T17:51:07.812Z,59.40
2022-08-01T17:53:37.474Z,59.50
2022-08-01T17:56:23.908Z,59.70
2022-08-01T17:58:52.373Z,60.10
2022-08-01T18:01:20.676Z,60.50
2022-08-01T18:03:50.627Z,60.60
2022-08-01T18:06:19.010Z,60.80
2022-08-01T18:08:49.437Z,60.50
2022-08-01T18:11:20.137Z,60.90
2022-08-01T18:13:48.352Z,60.60
2022-08-01T18:16:18.331Z,60.70
2022-08-01T18:18:45.215Z,59.80
2022-08-01T18:21:14.696Z,59.20
2022-08-01T18:23:44.220Z,59.40
2022-08-01T18:26:22.094Z,59.80
2022-08-01T18:28:51.652Z,60.10
2022-08-01T18:31:20.732Z,60.50
2022-08-01T18:33:48.534Z,60.90
2022-08-01T18:36:31.557Z,61.00
2022-08-01T18:39:00.729Z,61.30
2022-08-01T18:41:28.994Z,61.60
2022-08-01T18:44:05.656Z,61.80
2022-08-01T18:46:38.909Z,62.10
2022-08-01T18:49:08.779Z,62.20
2022-08-01T18:51:40.252Z,62.40
2022-08-01T18:54:09.968Z,62.80
2022-08-01T18:56:37.152Z,63.00
2022-08-01T18:59:03.939Z,63.50
2022-08-01T19:01:31.010Z,64.10
2022-08-01T19:03:57.975Z,64.50
2022-08-01T19:06:26.996Z,64.60
2022-08-01T19:08:58.374Z,64.90
2022-08-01T19:11:31.568Z,65.00
2022-08-01T19:13:58.918Z,64.60
2022-08-01T19:16:29.172Z,64.90
2022-08-01T19:19:00.680Z,64.40
2022-08-01T19:21:27.598Z,63.50
2022-08-01T19:24:17.230Z,64.00
2022-08-01T19:27:08.437Z,63.30
2022-08-01T19:29:39.391Z,63.50
2022-08-01T19:32:10.165Z,64.00
2022-08-01T19:34:59.778Z,64.40
2022-08-01T19:37:27.414Z,64.60
2022-08-01T19:39:55.353Z,65.00
2022-08-01T19:42:25.013Z,65.40
2022-08-01T19:44:55.027Z,65.50
2022-08-01T19:47:24.426Z,65.70
2022-08-01T19:49:54.382Z,65.80
2022-08-01T19:52:30.007Z,66.10
2022-08-01T19:54:58.162Z,67.30
2022-08-01T19:57:28.619Z,66.70
2022-08-01T20:00:27.814Z,67.20
2022-08-01T20:03:01.644Z,67.20
2022-08-01T20:05:29.882Z,67.20
2022-08-01T20:07:57.568Z,67.10
2022-08-01T20:10:24.809Z,66.90
2022-08-01T20:12:54.438Z,67.00
2022-08-01T20:15:22.663Z,66.50
2022-08-01T20:17:52.670Z,66.30
2022-08-01T20:20:20.920Z,66.20
2022-08-01T20:22:49.784Z,66.50
2022-08-01T20:25:22.591Z,66.70
2022-08-01T20:27:52.082Z,67.00
2022-08-01T20:30:19.117Z,67.00
2022-08-01T20:32:47.317Z,67.00
2022-08-01T20:35:15.767Z,67.00
2022-08-01T20:38:03.787Z,67.50
2022-08-01T20:40:30.945Z,67.90
2022-08-01T20:42:59.593Z,68.20
2022-08-01T20:45:33.623Z,68.70
2022-08-01T20:48:01.967Z,69.30
2022-08-01T20:50:53.291Z,70.00
2022-08-01T20:53:24.550Z,70.40
2022-08-01T20:56:17.292Z,70.80
2022-08-01T20:59:00.355Z,71.10
2022-08-01T21:01:31.919Z,71.40
2022-08-01T21:04:27.245Z,72.00
2022-08-01T21:06:58.937Z,72.30
2022-08-01T21:09:36.796Z,72.70
2022-08-01T21:12:13.703Z,73.20
2022-08-01T21:14:54.727Z,73.90
2022-08-01T21:17:58.415Z,75.00
2022-08-01T21:20:29.019Z,76.90
2022-08-01T21:23:09.946Z,78.10
2022-08-01T21:25:37.599Z,79.70
2022-08-01T21:28:05.241Z,81.30
2022-08-01T21:30:36.324Z,82.60
2022-08-01T21:33:07.402Z,83.50
2022-08-01T21:35:36.868Z,85.10
2022-08-01T21:38:05.710Z,86.70
2022-08-01T21:40:36.367Z,86.80
2022-08-01T21:43:03.794Z,86.80
2022-08-01T21:45:31.360Z,86.90
2022-08-01T21:48:01.513Z,87.00
2022-08-01T21:50:30.557Z,87.00
2022-08-01T21:53:18.301Z,87.10
2022-08-01T21:56:34.253Z,86.80
2022-08-01T21:59:10.414Z,86.30
2022-08-01T22:01:51.335Z,86.40
2022-08-01T22:04:30.011Z,87.00
2022-08-01T22:06:58.128Z,87.30
2022-08-01T22:09:28.956Z,88.30
2022-08-01T22:12:01.515Z,88.30
2022-08-01T22:14:31.746Z,88.60
2022-08-01T22:16:59.973Z,89.70
2022-08-01T22:19:44.565Z,90.80
2022-08-01T22:22:51.631Z,91.20
2022-08-01T22:25:01.595Z,91.50
2022-08-01T22:28:08.170Z,92.00
2022-08-01T22:30:17.928Z,92.30
2022-08-01T22:33:15.186Z,93.30
2022-08-01T22:35:39.948Z,93.80
2022-08-01T22:38:40.648Z,94.70
2022-08-01T22:41:30.726Z,95.30
2022-08-01T22:44:27.048Z,96.00
2022-08-01T22:47:04.310Z,96.60
2022-08-01T22:49:35.030Z,96.00
2022-08-01T22:52:12.443Z,96.20
2022-08-01T22:54:41.378Z,96.40
2022-08-01T22:57:20.188Z,97.00
2022-08-01T23:00:10.173Z,97.80
2022-08-01T23:02:41.910Z,98.20
2022-08-01T23:05:14.162Z,97.70
2022-08-01T23:07:50.031Z,96.90
2022-08-01T23:10:20.025Z,96.60
2022-08-01T23:12:50.851Z,95.90
2022-08-01T23:15:22.094Z,95.80
2022-08-01T23:17:50.521Z,95.80
2022-08-01T23:20:18.050Z,96.30
2022-08-01T23:22:45.879Z,96.40
2022-08-01T23:25:16.844Z,96.80
2022-08-01T23:27:51.539Z,97.00
2022-08-01T23:30:34.533Z,97.60
2022-08-01T23:33:02.112Z,98.20
2022-08-01T23:35:30.650Z,98.60
2022-08-01T23:38:02.429Z,98.40
2022-08-01T23:40:33.575Z,98.30
2022-08-01T23:43:02.178Z,98.70
2022-08-01T23:45:58.503Z,99.00
2022-08-01T23:48:23.561Z,99.60
2022-08-01T23:50:50.977Z,99.80
2022-08-01T23:53:17.802Z,99.30
2022-08-01T23:55:47.699Z,98.80
2022-08-01T23:58:17.556Z,97.90
